Time;durP1;ratioP1;P1;durP2;ratioP2;P2;SDS_P1;SDS_P2;PMS_P1;PMS_P2;Temp;Humidity;BMP_temperature;BMP_pressure;BME280_temperature;BME280_humidity;BME280_pressure;Samples;Min_cycle;Max_cycle;Signal;HPM_P1;HPM_P2
2022/12/29 00:01:39;;;;;;;27.52;13.85;;;9.50;99.90;;;;;;5013417;28;20076;-87
2022/12/29 00:04:05;;;;;;;24.65;13.30;;;9.60;99.90;;;;;;5014604;28;20044;-87
2022/12/29 00:06:31;;;;;;;24.40;12.45;;;9.60;99.90;;;;;;5014445;28;20169;-87
2022/12/29 00:08:57;;;;;;;28.90;13.15;;;9.70;99.90;;;;;;5014619;28;20126;-87
2022/12/29 00:11:26;;;;;;;25.67;13.18;;;9.60;99.90;;;;;;5014404;28;20129;-87
2022/12/29 00:16:38;;;;;;;23.33;12.13;;;9.70;99.90;;;;;;5013221;28;20180;-87
2022/12/29 00:19:04;;;;;;;24.05;12.20;;;9.70;99.90;;;;;;5014216;28;20042;-87
2022/12/29 00:35:26;;;;;;;24.50;11.85;;;9.70;99.90;;;;;;5012639;28;20053;-87
2022/12/29 00:46:06;;;;;;;26.05;13.18;;;9.80;99.90;;;;;;5013775;28;20053;-87
2022/12/29 00:51:16;;;;;;;23.90;12.00;;;9.80;99.90;;;;;;5014190;28;20054;-87
2022/12/29 00:53:42;;;;;;;25.80;12.48;;;9.70;99.90;;;;;;5012644;28;20042;-88
2022/12/29 00:56:08;;;;;;;26.73;13.85;;;9.80;99.90;;;;;;5012459;28;20133;-87
2022/12/29 00:58:33;;;;;;;32.55;13.90;;;9.80;99.90;;;;;;5012747;28;20125;-87
2022/12/29 01:01:04;;;;;;;31.25;14.65;;;9.70;99.90;;;;;;5012630;28;20460;-87
2022/12/29 01:03:29;;;;;;;28.58;14.20;;;9.70;99.90;;;;;;5012521;28;20050;-88
2022/12/29 01:05:55;;;;;;;27.23;14.23;;;9.70;99.90;;;;;;5011574;28;20053;-87
2022/12/29 01:08:21;;;;;;;30.83;13.88;;;9.70;99.90;;;;;;5014104;28;20045;-87
2022/12/29 01:10:46;;;;;;;28.70;14.35;;;9.60;99.90;;;;;;5012325;28;20405;-87
2022/12/29 01:13:12;;;;;;;27.17;13.70;;;9.70;99.90;;;;;;5012801;28;20084;-88
2022/12/29 01:15:38;;;;;;;28.33;13.77;;;9.80;99.90;;;;;;5013465;28;20126;-88
2022/12/29 01:18:03;;;;;;;36.08;14.40;;;9.80;99.90;;;;;;5012436;28;20054;-88
2022/12/29 01:20:29;;;;;;;31.05;14.95;;;9.60;99.90;;;;;;5013513;28;20045;-88
2022/12/29 01:22:54;;;;;;;33.40;16.13;;;9.70;99.90;;;;;;5012837;28;20387;-89
2022/12/29 01:25:20;;;;;;;25.63;13.95;;;9.70;99.90;;;;;;5012571;28;20046;-87
2022/12/29 01:27:46;;;;;;;27.20;14.23;;;9.70;99.90;;;;;;5012421;28;20053;-88
2022/12/29 01:30:12;;;;;;;29.58;15.27;;;9.70;99.90;;;;;;5012381;28;20482;-89
2022/12/29 01:32:37;;;;;;;30.80;14.85;;;9.60;99.90;;;;;;5012272;28;20053;-89
2022/12/29 01:35:03;;;;;;;32.53;15.98;;;9.60;99.90;;;;;;5012257;28;20050;-88
2022/12/29 01:37:29;;;;;;;27.88;14.93;;;9.60;99.90;;;;;;5013874;28;20085;-88
2022/12/29 01:39:55;;;;;;;31.42;14.90;;;9.70;99.90;;;;;;5013641;28;20104;-87
2022/12/29 01:42:25;;;;;;;31.88;14.88;;;9.80;99.90;;;;;;5012651;28;20100;-88
2022/12/29 01:44:56;;;;;;;30.70;13.60;;;9.70;99.90;;;;;;5013838;28;20088;-88
2022/12/29 01:47:42;;;;;;;29.52;14.70;;;9.70;99.90;;;;;;5013549;28;20049;-88
2022/12/29 01:50:15;;;;;;;24.60;13.20;;;9.70;99.90;;;;;;5012613;28;20498;-87
2022/12/29 01:52:49;;;;;;;26.67;13.73;;;9.70;99.90;;;;;;5013654;28;20095;-87
2022/12/29 01:55:15;;;;;;;24.42;13.85;;;9.70;99.90;;;;;;5013921;28;20121;-88
2022/12/29 01:57:45;;;;;;;24.20;11.48;;;9.70;99.90;;;;;;5013405;28;20065;-88
2022/12/29 02:00:13;;;;;;;28.63;12.85;;;9.70;99.90;;;;;;5014050;28;20486;-87
2022/12/29 02:02:46;;;;;;;27.17;13.65;;;9.80;99.90;;;;;;5013192;28;20050;-87
2022/12/29 02:05:18;;;;;;;26.70;13.38;;;9.80;99.90;;;;;;5013936;28;20116;-87
2022/12/29 02:07:45;;;;;;;24.90;12.93;;;9.80;99.90;;;;;;5013622;28;20106;-87
2022/12/29 02:10:10;;;;;;;25.30;11.90;;;9.80;99.90;;;;;;5014387;28;20133;-86
2022/12/29 02:12:36;;;;;;;20.38;10.52;;;9.80;99.90;;;;;;5014278;28;20077;-87
2022/12/29 02:15:04;;;;;;;23.80;10.15;;;9.70;99.90;;;;;;5013891;28;20038;-88
2022/12/29 02:17:35;;;;;;;23.10;10.82;;;9.70;99.90;;;;;;5014996;28;20049;-87
2022/12/29 02:20:27;;;;;;;23.70;11.52;;;9.60;99.90;;;;;;5018112;28;20044;-87
2022/12/29 02:23:01;;;;;;;29.13;12.55;;;9.50;99.90;;;;;;5016869;28;20061;-87
2022/12/29 02:25:49;;;;;;;25.80;11.02;;;9.70;99.90;;;;;;5019268;28;20520;-87
2022/12/29 02:28:46;;;;;;;25.08;11.68;;;9.50;99.90;;;;;;5016486;28;20409;-87
2022/12/29 02:31:37;;;;;;;28.63;12.25;;;9.60;99.90;;;;;;5019777;28;20117;-89
2022/12/29 02:34:21;;;;;;;20.77;10.75;;;9.60;99.90;;;;;;5006564;28;20062;-90
2022/12/29 02:37:02;;;;;;;26.98;11.50;;;9.60;99.90;;;;;;5015032;28;20454;-90
2022/12/29 02:39:57;;;;;;;12.55;6.30;;;9.50;99.90;;;;;;5015269;28;20054;-90
2022/12/29 02:42:40;;;;;;;14.15;6.25;;;9.60;99.90;;;;;;5013810;28;20498;-90
2022/12/29 02:45:31;;;;;;;8.88;4.70;;;9.50;99.90;;;;;;5016603;28;20053;-90
2022/12/29 02:48:30;;;;;;;7.95;2.97;;;9.40;99.90;;;;;;5014982;28;20057;-90
2022/12/29 02:51:12;;;;;;;8.30;2.30;;;9.40;99.90;;;;;;5015006;28;20060;-90
2022/12/29 02:56:23;;;;;;;7.25;1.50;;;9.40;99.90;;;;;;5014671;28;20054;-89
2022/12/29 02:58:49;;;;;;;10.88;2.28;;;9.30;99.90;;;;;;5014608;28;20104;-89
2022/12/29 03:01:23;;;;;;;3.60;1.10;;;9.20;99.90;;;;;;5016070;28;20117;-90
2022/12/29 03:04:43;;;;;;;4.70;1.15;;;9.20;99.90;;;;;;5016047;28;20072;-89
2022/12/29 03:07:47;;;;;;;5.05;1.48;;;9.10;99.90;;;;;;4978040;28;20478;-90
2022/12/29 03:10:19;;;;;;;4.35;1.55;;;9.20;99.90;;;;;;5015259;28;20482;-89
2022/12/29 03:16:02;;;;;;;3.42;1.23;;;9.10;99.90;;;;;;5015892;28;20124;-89
2022/12/29 03:18:39;;;;;;;4.18;1.58;;;9.10;99.90;;;;;;5014674;28;20050;-89
2022/12/29 03:22:26;;;;;;;4.88;1.40;;;9.10;99.90;;;;;;5014111;28;20510;-89
2022/12/29 03:24:13;;;;;;;6.72;2.35;;;9.10;99.90;;;;;;5015511;28;20054;-90
2022/12/29 03:26:42;;;;;;;7.18;3.20;;;9.10;99.90;;;;;;5014500;28;20046;-88
2022/12/29 03:29:09;;;;;;;10.90;4.47;;;9.00;99.90;;;;;;5014636;28;20054;-87
2022/12/29 03:31:37;;;;;;;13.43;6.10;;;9.10;99.90;;;;;;5014238;28;20394;-88
2022/12/29 03:34:05;;;;;;;14.10;6.18;;;9.00;99.90;;;;;;5013839;28;20492;-88
2022/12/29 03:36:40;;;;;;;10.35;6.07;;;9.00;99.90;;;;;;5013744;28;20128;-88
2022/12/29 03:39:11;;;;;;;16.83;7.72;;;9.10;99.90;;;;;;5015263;28;20049;-88
2022/12/29 03:41:41;;;;;;;18.42;7.93;;;9.00;99.90;;;;;;5015147;28;20049;-88
2022/12/29 03:44:07;;;;;;;24.63;7.53;;;8.90;99.90;;;;;;5015339;28;20057;-88
2022/12/29 03:46:32;;;;;;;19.73;7.18;;;8.90;99.90;;;;;;5013611;28;20050;-87
2022/12/29 03:48:58;;;;;;;21.80;7.03;;;8.90;99.90;;;;;;5013569;28;20143;-88
2022/12/29 03:51:24;;;;;;;32.53;9.40;;;8.90;99.90;;;;;;5014987;28;20045;-87
2022/12/29 03:53:49;;;;;;;17.90;5.00;;;8.90;99.90;;;;;;5013638;28;20108;-87
2022/12/29 03:56:15;;;;;;;26.95;5.50;;;8.90;99.90;;;;;;5013460;28;20049;-88
2022/12/29 03:58:41;;;;;;;14.13;4.47;;;8.90;99.90;;;;;;5013411;28;20133;-87
2022/12/29 04:01:06;;;;;;;19.95;6.28;;;8.80;99.90;;;;;;5014919;28;20046;-87
2022/12/29 04:03:32;;;;;;;16.08;4.80;;;8.70;99.90;;;;;;5014046;28;20050;-87
2022/12/29 04:05:58;;;;;;;21.35;4.38;;;8.70;99.90;;;;;;5014506;28;20045;-87
2022/12/29 04:08:23;;;;;;;15.05;4.35;;;8.80;99.90;;;;;;5013598;28;20046;-87
2022/12/29 04:10:49;;;;;;;12.63;4.13;;;8.80;99.90;;;;;;5014412;28;20674;-87
2022/12/29 04:13:16;;;;;;;11.10;3.80;;;8.70;99.90;;;;;;5014710;28;20086;-87
2022/12/29 04:15:43;;;;;;;15.25;2.95;;;8.70;99.90;;;;;;5014435;28;20124;-87
2022/12/29 04:18:08;;;;;;;19.13;4.32;;;8.80;99.90;;;;;;5013315;28;20068;-87
2022/12/29 04:23:18;;;;;;;8.63;3.53;;;8.50;99.90;;;;;;5012982;28;20053;-87
2022/12/29 04:25:47;;;;;;;18.98;6.07;;;8.60;99.90;;;;;;5012933;28;20049;-87
2022/12/29 04:28:14;;;;;;;14.85;4.10;;;8.60;99.90;;;;;;5014202;28;20540;-87
2022/12/29 04:30:40;;;;;;;13.75;3.95;;;8.70;99.90;;;;;;5013015;28;20121;-87
2022/12/29 04:33:06;;;;;;;13.18;3.88;;;8.60;99.90;;;;;;5014277;28;20133;-86
2022/12/29 04:35:32;;;;;;;13.27;4.13;;;8.50;99.90;;;;;;5012583;28;20050;-87
2022/12/29 04:37:57;;;;;;;11.05;3.95;;;8.60;99.90;;;;;;5013053;28;20057;-87
2022/12/29 04:40:23;;;;;;;11.27;3.60;;;8.50;99.90;;;;;;5012965;28;20405;-86
2022/12/29 04:42:49;;;;;;;22.65;4.03;;;8.50;99.90;;;;;;5013021;28;20402;-86
2022/12/29 04:45:15;;;;;;;16.05;3.88;;;8.50;99.90;;;;;;5012802;28;20057;-87
2022/12/29 04:47:41;;;;;;;13.82;4.78;;;8.50;99.90;;;;;;5012754;28;20046;-87
2022/12/29 04:50:07;;;;;;;21.92;4.25;;;8.50;99.90;;;;;;5012705;28;20585;-86
2022/12/29 04:52:33;;;;;;;22.02;3.72;;;8.40;99.90;;;;;;5014053;28;20180;-86
2022/12/29 04:54:58;;;;;;;24.02;5.03;;;8.40;99.90;;;;;;5012550;28;20445;-87
2022/12/29 04:57:24;;;;;;;20.17;3.47;;;8.40;99.90;;;;;;5012845;28;20103;-87
2022/12/29 04:59:50;;;;;;;32.42;5.85;;;8.30;99.90;;;;;;5012592;28;20481;-86
2022/12/29 05:02:16;;;;;;;28.10;4.78;;;8.40;99.90;;;;;;5013101;28;20061;-87
2022/12/29 05:04:42;;;;;;;29.63;4.50;;;8.30;99.90;;;;;;5012586;28;20049;-87
2022/12/29 05:07:08;;;;;;;42.15;5.05;;;8.30;99.90;;;;;;5012297;28;20046;-86
2022/12/29 05:09:33;;;;;;;27.90;4.63;;;8.30;99.90;;;;;;5012682;28;20125;-86
2022/12/29 05:11:59;;;;;;;30.15;4.43;;;8.20;99.90;;;;;;5013822;28;20133;-86
2022/12/29 05:14:25;;;;;;;34.88;4.28;;;8.30;99.90;;;;;;5013711;28;20046;-86
2022/12/29 05:16:50;;;;;;;30.48;4.60;;;8.40;99.90;;;;;;5013810;28;20050;-86
2022/12/29 05:19:16;;;;;;;38.42;4.45;;;8.20;99.90;;;;;;5013762;28;20042;-86
2022/12/29 05:21:42;;;;;;;27.35;3.88;;;8.20;99.90;;;;;;5013529;28;20081;-86
2022/12/29 05:24:08;;;;;;;36.75;4.50;;;8.30;99.90;;;;;;5012549;28;20052;-86
2022/12/29 05:26:34;;;;;;;26.65;3.83;;;8.30;99.90;;;;;;5012398;28;20046;-86
2022/12/29 05:29:00;;;;;;;29.67;5.30;;;8.30;99.90;;;;;;5012578;28;20482;-87
2022/12/29 05:31:26;;;;;;;30.02;3.63;;;8.40;99.90;;;;;;5012358;28;20474;-85
2022/12/29 05:33:52;;;;;;;40.17;4.90;;;8.40;99.90;;;;;;5012309;28;20082;-86
2022/12/29 05:36:18;;;;;;;54.50;6.20;;;8.50;99.90;;;;;;5012013;28;20089;-86
2022/12/29 05:38:43;;;;;;;34.67;5.70;;;8.40;99.90;;;;;;5013602;28;20057;-86
2022/12/29 05:41:09;;;;;;;34.85;5.88;;;8.40;99.90;;;;;;5013176;28;20050;-87
2022/12/29 05:43:36;;;;;;;31.40;5.03;;;8.50;99.90;;;;;;5013439;28;20073;-87
2022/12/29 05:46:02;;;;;;;27.50;4.07;;;8.50;99.90;;;;;;5012189;28;20486;-86
2022/12/29 05:48:28;;;;;;;29.00;4.85;;;8.50;99.90;;;;;;5012398;28;20092;-86
2022/12/29 05:50:54;;;;;;;35.30;5.90;;;8.40;99.90;;;;;;5011985;28;20077;-85
2022/12/29 05:53:20;;;;;;;26.73;3.90;;;8.30;99.90;;;;;;5014610;28;20060;-86
2022/12/29 05:55:49;;;;;;;36.72;4.72;;;8.40;99.90;;;;;;5015772;28;20045;-86
2022/12/29 05:58:16;;;;;;;20.48;3.25;;;8.30;99.90;;;;;;5015824;28;20058;-86
2022/12/29 06:00:42;;;;;;;28.63;5.07;;;8.30;99.90;;;;;;5015569;28;20485;-86
2022/12/29 06:03:08;;;;;;;29.50;3.67;;;8.30;99.90;;;;;;5015633;28;20061;-86
2022/12/29 06:05:33;;;;;;;45.60;5.85;;;8.30;99.90;;;;;;5015505;28;20133;-86
2022/12/29 06:07:59;;;;;;;38.67;4.57;;;8.30;99.90;;;;;;5015430;28;20085;-85
2022/12/29 06:10:25;;;;;;;30.27;4.18;;;8.30;99.90;;;;;;5015735;28;20141;-86
2022/12/29 06:12:51;;;;;;;26.88;3.47;;;8.30;99.90;;;;;;5015743;28;20050;-85
2022/12/29 06:15:17;;;;;;;26.33;3.60;;;8.40;99.90;;;;;;5015373;28;20509;-86
2022/12/29 06:17:43;;;;;;;34.05;4.93;;;8.40;99.90;;;;;;5016718;28;20050;-86
2022/12/29 06:20:09;;;;;;;22.58;4.00;;;8.50;99.90;;;;;;5015288;28;20474;-85
2022/12/29 06:22:36;;;;;;;26.05;3.53;;;8.40;99.90;;;;;;5015450;28;20057;-86
2022/12/29 06:25:02;;;;;;;26.38;4.07;;;8.40;99.90;;;;;;5015208;28;20068;-86
2022/12/29 06:27:28;;;;;;;32.65;3.92;;;8.30;99.90;;;;;;5015257;28;20060;-85
2022/12/29 06:29:54;;;;;;;20.90;3.58;;;8.40;99.90;;;;;;5015532;28;20046;-86
2022/12/29 06:32:20;;;;;;;31.48;4.10;;;8.40;99.90;;;;;;5015425;28;20050;-85
2022/12/29 06:34:46;;;;;;;23.38;4.90;;;8.40;99.90;;;;;;5014842;28;20057;-86
2022/12/29 06:37:12;;;;;;;24.83;4.60;;;8.30;99.90;;;;;;5015210;28;20054;-86
2022/12/29 06:39:37;;;;;;;36.50;4.50;;;8.20;99.90;;;;;;5016242;28;20398;-86
2022/12/29 06:42:03;;;;;;;35.58;5.53;;;8.30;99.90;;;;;;5015034;28;20042;-86
2022/12/29 06:44:29;;;;;;;33.00;4.60;;;8.20;99.90;;;;;;5014932;28;20045;-86
2022/12/29 06:46:54;;;;;;;35.35;4.78;;;8.30;99.90;;;;;;5014759;28;20092;-86
2022/12/29 06:49:20;;;;;;;45.58;7.80;;;8.20;99.90;;;;;;5016114;28;20067;-86
2022/12/29 06:51:46;;;;;;;34.10;4.43;;;8.10;99.90;;;;;;5016128;28;20574;-86
2022/12/29 06:54:12;;;;;;;34.45;6.30;;;8.10;99.90;;;;;;5014686;28;20096;-85
2022/12/29 06:56:38;;;;;;;26.73;3.97;;;8.10;99.90;;;;;;5014680;28;20096;-86
2022/12/29 06:59:04;;;;;;;42.60;5.47;;;8.10;99.90;;;;;;5014462;28;20061;-86
2022/12/29 07:01:30;;;;;;;35.45;5.65;;;8.10;99.90;;;;;;5014894;28;20046;-86
2022/12/29 07:03:55;;;;;;;34.60;6.18;;;8.20;99.90;;;;;;5013546;28;20415;-86
2022/12/29 07:06:21;;;;;;;40.97;5.88;;;8.20;99.90;;;;;;5014577;28;20069;-86
2022/12/29 07:08:47;;;;;;;35.47;5.82;;;8.20;99.90;;;;;;5014316;28;20127;-86
2022/12/29 07:11:12;;;;;;;46.33;5.85;;;8.20;99.90;;;;;;5014786;28;20132;-86
2022/12/29 07:13:38;;;;;;;36.13;4.70;;;8.20;99.90;;;;;;5014389;28;20099;-86
2022/12/29 07:16:08;;;;;;;38.38;5.22;;;8.00;99.90;;;;;;5014638;28;20050;-85
2022/12/29 07:18:34;;;;;;;44.13;4.75;;;8.00;99.90;;;;;;5014168;28;20121;-85
2022/12/29 07:21:00;;;;;;;31.00;4.65;;;8.20;99.90;;;;;;5014347;28;20117;-85
2022/12/29 07:23:25;;;;;;;42.95;7.22;;;8.20;99.90;;;;;;5013979;28;20187;-86
2022/12/29 07:26:03;;;;;;;44.53;5.85;;;8.20;99.90;;;;;;5015314;28;20034;-85
2022/12/29 07:28:29;;;;;;;43.75;6.20;;;8.20;99.90;;;;;;5015320;28;20120;-85
2022/12/29 07:30:55;;;;;;;36.70;5.78;;;8.20;99.90;;;;;;5015086;28;20452;-85
2022/12/29 07:33:21;;;;;;;34.30;6.45;;;8.20;99.90;;;;;;5015410;28;20193;-85
2022/12/29 07:35:47;;;;;;;43.20;5.03;;;8.30;99.90;;;;;;5013787;28;20062;-85
2022/12/29 07:38:12;;;;;;;57.65;5.72;;;8.40;99.90;;;;;;5014057;28;20092;-85
2022/12/29 07:40:38;;;;;;;35.58;4.90;;;8.40;99.90;;;;;;5013947;28;20049;-85
2022/12/29 07:43:04;;;;;;;44.40;6.07;;;8.30;99.90;;;;;;5013789;28;20046;-85
2022/12/29 07:45:30;;;;;;;45.08;5.50;;;8.30;99.90;;;;;;5013449;28;20482;-85
2022/12/29 07:47:55;;;;;;;33.50;4.65;;;8.40;99.90;;;;;;5013545;28;20119;-85
2022/12/29 07:50:21;;;;;;;45.15;6.80;;;8.30;99.90;;;;;;5015117;28;20406;-85
2022/12/29 07:52:47;;;;;;;33.97;4.82;;;8.30;99.90;;;;;;5013605;28;20091;-86
2022/12/29 07:55:14;;;;;;;40.13;5.47;;;8.40;99.90;;;;;;5013603;28;20049;-86
2022/12/29 07:57:40;;;;;;;40.75;6.03;;;8.40;99.90;;;;;;5012912;28;20042;-85
2022/12/29 08:00:06;;;;;;;49.70;7.65;;;8.30;99.90;;;;;;5013349;28;20076;-86
2022/12/29 08:02:31;;;;;;;43.28;6.43;;;8.40;99.90;;;;;;5013252;28;20394;-85
2022/12/29 08:04:57;;;;;;;47.13;6.72;;;8.40;99.90;;;;;;5013000;28;20061;-86
2022/12/29 08:07:23;;;;;;;32.40;6.50;;;8.50;99.90;;;;;;5013239;28;20084;-85
2022/12/29 08:09:48;;;;;;;36.95;4.80;;;8.50;99.90;;;;;;5013258;28;20034;-85
2022/12/29 08:12:14;;;;;;;34.20;4.75;;;8.50;99.90;;;;;;5013195;28;20444;-86
2022/12/29 08:14:39;;;;;;;34.70;5.20;;;8.40;99.90;;;;;;5013093;28;20100;-86
2022/12/29 08:17:05;;;;;;;39.13;4.90;;;8.40;99.90;;;;;;5012905;28;20549;-85
2022/12/29 08:19:31;;;;;;;37.50;5.32;;;8.40;99.90;;;;;;5013317;28;20080;-85
2022/12/29 08:21:56;;;;;;;30.75;4.85;;;8.30;99.90;;;;;;5013022;28;20046;-85
2022/12/29 08:24:22;;;;;;;29.63;4.63;;;8.30;99.90;;;;;;5013102;28;20072;-85
2022/12/29 08:26:48;;;;;;;32.60;4.05;;;8.40;99.90;;;;;;5013192;28;20042;-84
2022/12/29 08:29:13;;;;;;;36.70;5.97;;;8.40;99.90;;;;;;5013123;28;20049;-84
2022/12/29 08:31:39;;;;;;;28.30;4.03;;;8.40;99.90;;;;;;5012896;28;20041;-84
2022/12/29 08:34:05;;;;;;;49.00;6.50;;;8.30;99.90;;;;;;5012683;28;20042;-85
2022/12/29 08:36:31;;;;;;;42.70;5.10;;;8.40;99.90;;;;;;5012415;28;20057;-85
2022/12/29 08:38:57;;;;;;;43.00;5.70;;;8.30;99.90;;;;;;5012788;28;20058;-85
2022/12/29 08:41:23;;;;;;;32.13;4.90;;;8.40;99.90;;;;;;5013990;28;20052;-85
2022/12/29 08:43:49;;;;;;;33.47;4.63;;;8.40;99.90;;;;;;5012988;28;20045;-85
2022/12/29 08:46:15;;;;;;;42.83;5.93;;;8.40;99.90;;;;;;5013788;28;20096;-85
2022/12/29 08:48:41;;;;;;;39.00;6.00;;;8.40;99.90;;;;;;5012520;28;20050;-84
2022/12/29 08:51:07;;;;;;;51.88;7.78;;;8.40;99.90;;;;;;5013813;28;20090;-85
2022/12/29 08:53:33;;;;;;;45.80;5.43;;;8.30;99.90;;;;;;5012830;28;20065;-85
2022/12/29 08:56:01;;;;;;;51.25;6.82;;;8.30;99.90;;;;;;5012625;28;20050;-85
2022/12/29 08:58:27;;;;;;;48.83;7.22;;;8.20;99.90;;;;;;5012400;28;20060;-85
2022/12/29 09:00:54;;;;;;;56.33;7.45;;;8.30;99.90;;;;;;5012745;28;20068;-86
2022/12/29 09:03:21;;;;;;;44.67;7.70;;;8.30;99.90;;;;;;5012447;28;20049;-85
2022/12/29 09:05:51;;;;;;;41.55;5.70;;;8.20;99.90;;;;;;5012442;28;20062;-86
2022/12/29 09:08:18;;;;;;;52.95;5.78;;;8.10;99.90;;;;;;5012192;28;20041;-85
2022/12/29 09:10:44;;;;;;;37.10;5.35;;;8.20;99.90;;;;;;5012462;28;20516;-85
2022/12/29 09:13:10;;;;;;;38.20;5.45;;;8.10;99.90;;;;;;5012551;28;20060;-85
2022/12/29 09:15:36;;;;;;;57.22;7.38;;;8.20;99.90;;;;;;5012342;28;20180;-85
2022/12/29 09:18:02;;;;;;;43.05;6.57;;;8.20;99.90;;;;;;5012518;28;20052;-85
2022/12/29 09:20:28;;;;;;;47.05;6.03;;;8.20;99.90;;;;;;5012351;28;20128;-85
2022/12/29 09:22:53;;;;;;;41.78;6.90;;;8.40;99.90;;;;;;5012269;28;20046;-85
2022/12/29 09:25:19;;;;;;;52.78;7.35;;;8.30;99.90;;;;;;5013729;28;20050;-85
2022/12/29 09:27:47;;;;;;;44.85;5.68;;;8.40;99.90;;;;;;5013727;28;20406;-85
2022/12/29 09:30:14;;;;;;;43.33;6.32;;;8.40;99.90;;;;;;5016525;28;20121;-85
2022/12/29 09:32:40;;;;;;;36.47;5.72;;;8.40;99.90;;;;;;5016076;28;20054;-85
2022/12/29 09:35:06;;;;;;;44.25;7.82;;;8.40;99.90;;;;;;5016055;28;20053;-86
2022/12/29 09:37:32;;;;;;;41.15;6.05;;;8.40;99.90;;;;;;5016057;28;20062;-86
2022/12/29 09:39:58;;;;;;;40.55;7.10;;;8.30;99.90;;;;;;5016209;28;20054;-86
2022/12/29 09:42:29;;;;;;;44.75;7.65;;;8.40;99.90;;;;;;5016437;28;20050;-88
2022/12/29 09:45:15;;;;;;;49.50;7.05;;;8.40;99.90;;;;;;5016257;28;20490;-86
2022/12/29 09:47:45;;;;;;;51.47;8.85;;;8.30;99.90;;;;;;5015823;28;20493;-86
2022/12/29 09:50:31;;;;;;;37.08;6.05;;;8.30;99.90;;;;;;5015684;28;20038;-86
2022/12/29 09:53:21;;;;;;;41.78;6.90;;;8.10;99.90;;;;;;5015769;28;20084;-85
2022/12/29 09:55:53;;;;;;;61.63;7.03;;;8.10;99.90;;;;;;5015947;28;20069;-85
2022/12/29 09:58:41;;;;;;;43.63;7.05;;;8.10;99.90;;;;;;5015584;28;20088;-85
2022/12/29 10:01:27;;;;;;;31.35;5.55;;;8.10;99.90;;;;;;5015605;28;20069;-85
2022/12/29 10:03:56;;;;;;;29.17;5.00;;;8.00;99.90;;;;;;5015033;28;20525;-85
2022/12/29 10:06:42;;;;;;;31.13;4.63;;;8.10;99.90;;;;;;5015587;28;20057;-85
2022/12/29 10:09:22;;;;;;;31.13;5.40;;;8.00;99.90;;;;;;5015660;28;20516;-86
2022/12/29 10:12:09;;;;;;;35.08;5.35;;;7.90;99.90;;;;;;5015446;28;20046;-85
2022/12/29 10:15:02;;;;;;;24.05;5.13;;;8.00;99.90;;;;;;5015644;28;20057;-86
2022/12/29 10:17:36;;;;;;;31.90;4.90;;;8.00;99.90;;;;;;5015374;28;20052;-85
2022/12/29 10:20:20;;;;;;;33.75;4.63;;;8.00;99.90;;;;;;5015382;28;20054;-85
2022/12/29 10:23:21;;;;;;;25.83;4.93;;;8.10;99.90;;;;;;5015177;28;20453;-85
2022/12/29 10:25:47;;;;;;;31.40;4.63;;;8.20;99.90;;;;;;5007201;28;20071;-87
2022/12/29 10:28:24;;;;;;;31.33;4.95;;;8.20;99.90;;;;;;5016224;28;20078;-85
2022/12/29 10:30:52;;;;;;;36.00;5.63;;;8.30;99.90;;;;;;5015446;28;20069;-85
2022/12/29 10:33:26;;;;;;;40.13;5.90;;;8.40;99.90;;;;;;5015064;28;20137;-85
2022/12/29 10:35:52;;;;;;;44.30;6.72;;;8.20;99.90;;;;;;5014720;28;20046;-85
2022/12/29 10:38:36;;;;;;;53.60;7.18;;;8.40;99.90;;;;;;5014749;28;20054;-84
2022/12/29 10:41:12;;;;;;;54.05;7.72;;;8.50;99.90;;;;;;5014941;28;20482;-85
2022/12/29 10:43:52;;;;;;;55.95;6.80;;;8.40;99.90;;;;;;5014864;28;20038;-86
2022/12/29 10:46:26;;;;;;;41.63;6.45;;;8.60;99.90;;;;;;5014956;28;20053;-90
2022/12/29 10:48:52;;;;;;;46.40;8.25;;;8.60;99.90;;;;;;5016623;28;20050;-86
2022/12/29 10:51:48;;;;;;;58.40;7.65;;;8.70;99.90;;;;;;5014613;28;20046;-87
2022/12/29 10:54:36;;;;;;;53.00;8.48;;;8.70;99.90;;;;;;5015892;28;20132;-86
2022/12/29 10:57:07;;;;;;;41.50;6.03;;;8.70;99.90;;;;;;5014756;28;20512;-89
2022/12/29 10:59:36;;;;;;;60.50;7.25;;;8.60;99.90;;;;;;5014904;28;20046;-85
2022/12/29 11:02:10;;;;;;;42.45;5.40;;;8.70;99.90;;;;;;5015009;28;20045;-90
2022/12/29 11:04:42;;;;;;;47.92;5.78;;;8.60;99.90;;;;;;5014467;28;20076;-85
2022/12/29 11:07:09;;;;;;;45.33;8.50;;;8.70;99.90;;;;;;5016220;28;20049;-85
2022/12/29 11:09:38;;;;;;;40.58;6.03;;;8.70;99.90;;;;;;5014324;28;20482;-84
2022/12/29 11:12:26;;;;;;;51.10;6.47;;;8.60;99.90;;;;;;5014799;28;20092;-85
2022/12/29 11:15:11;;;;;;;59.92;6.25;;;8.80;99.90;;;;;;5016233;28;20089;-85
2022/12/29 11:17:50;;;;;;;35.63;4.60;;;8.70;99.90;;;;;;5015380;28;20573;-85
2022/12/29 11:20:27;;;;;;;34.92;6.13;;;8.60;99.90;;;;;;5014106;28;20053;-85
2022/12/29 11:22:52;;;;;;;50.28;8.68;;;8.80;99.90;;;;;;5014473;28;20504;-87
2022/12/29 11:25:18;;;;;;;29.58;4.97;;;8.80;99.90;;;;;;5014600;28;20053;-81
2022/12/29 11:27:56;;;;;;;34.45;6.25;;;8.90;99.90;;;;;;5014157;28;20048;-84
2022/12/29 11:30:25;;;;;;;38.10;5.93;;;8.90;99.90;;;;;;5014337;28;20046;-84
2022/12/29 11:32:53;;;;;;;30.73;4.07;;;9.00;99.90;;;;;;5013948;28;20046;-86
2022/12/29 11:35:34;;;;;;;26.90;4.63;;;9.20;99.90;;;;;;5013827;28;20169;-88
2022/12/29 11:38:02;;;;;;;29.38;3.90;;;9.20;99.90;;;;;;5014599;28;20058;-87
2022/12/29 11:40:28;;;;;;;21.70;3.83;;;9.30;99.90;;;;;;5014504;28;20049;-87
2022/12/29 11:43:04;;;;;;;22.85;3.55;;;9.30;99.90;;;;;;5013738;28;20509;-88
2022/12/29 11:45:35;;;;;;;26.50;4.60;;;9.30;99.90;;;;;;5014956;28;20042;-85
2022/12/29 11:48:08;;;;;;;21.85;3.35;;;9.40;99.90;;;;;;5013694;28;20165;-86
2022/12/29 11:50:36;;;;;;;;;;;9.40;99.90;;;;;;5013331;28;20493;-86
2022/12/29 11:53:05;;;;;;;22.45;4.70;;;9.40;99.90;;;;;;5013557;28;20000;-86
2022/12/29 11:55:31;;;;;;;25.83;3.40;;;9.40;99.90;;;;;;5013365;28;20513;-86
2022/12/29 11:58:01;;;;;;;18.33;3.42;;;9.30;99.90;;;;;;5014511;28;20386;-88
2022/12/29 12:00:29;;;;;;;21.00;3.13;;;9.40;99.90;;;;;;5013710;28;20056;-88
2022/12/29 12:03:19;;;;;;;19.55;3.92;;;9.40;99.90;;;;;;5013393;28;20111;-85
2022/12/29 12:05:52;;;;;;;18.00;3.90;;;9.40;99.90;;;;;;5013607;28;20046;-85
2022/12/29 12:08:21;;;;;;;;;;;9.40;99.90;;;;;;5013386;28;20058;-87
2022/12/29 12:11:16;;;;;;;15.00;2.65;;;9.30;99.90;;;;;;5013557;28;19925;-85
2022/12/29 12:14:04;;;;;;;12.90;2.42;;;9.40;99.90;;;;;;5013184;28;20045;-85
2022/12/29 12:16:36;;;;;;;21.63;3.53;;;9.40;99.90;;;;;;5014597;28;20406;-87
2022/12/29 12:19:32;;;;;;;14.68;2.97;;;9.40;99.90;;;;;;5013172;28;20448;-86
2022/12/29 12:22:13;;;;;;;20.13;2.78;;;9.40;99.90;;;;;;5013120;28;20378;-83
2022/12/29 12:24:44;;;;;;;17.23;3.38;;;9.40;99.90;;;;;;5013356;28;20054;-87
2022/12/29 12:27:12;;;;;;;21.98;3.53;;;9.40;99.90;;;;;;5013372;28;20033;-87
2022/12/29 12:29:52;;;;;;;16.55;3.72;;;9.40;99.90;;;;;;5012848;28;20053;-85
2022/12/29 12:32:27;;;;;;;18.17;3.13;;;9.40;99.90;;;;;;5014326;28;20124;-87
2022/12/29 12:34:52;;;;;;;16.40;3.65;;;9.40;99.90;;;;;;4995326;28;20058;-87
2022/12/29 12:37:49;;;;;;;16.08;2.20;;;9.40;99.90;;;;;;4993061;28;20072;-84
2022/12/29 12:40:28;;;;;;;16.15;2.70;;;9.40;99.90;;;;;;4992998;28;20042;-88
2022/12/29 12:43:06;;;;;;;27.52;2.90;;;9.40;99.90;;;;;;4992982;28;20046;-87
2022/12/29 12:45:55;;;;;;;17.50;3.17;;;9.40;99.90;;;;;;4992913;28;20466;-85
2022/12/29 12:48:32;;;;;;;28.33;5.07;;;9.40;99.90;;;;;;4992929;28;20085;-85
2022/12/29 12:51:13;;;;;;;26.88;4.97;;;9.30;99.90;;;;;;4993149;28;20046;-83
2022/12/29 12:54:07;;;;;;;19.00;3.08;;;9.30;99.90;;;;;;4991200;28;20180;-83
2022/12/29 12:56:39;;;;;;;29.23;3.30;;;9.40;99.90;;;;;;4992089;28;20038;-83
2022/12/29 12:59:38;;;;;;;23.25;2.88;;;9.40;99.90;;;;;;4992085;28;20371;-83
2022/12/29 13:02:49;;;;;;;15.80;2.88;;;9.40;99.90;;;;;;4992940;28;20042;-83
2022/12/29 13:05:36;;;;;;;23.13;3.67;;;9.40;99.90;;;;;;4992954;28;20468;-84
2022/12/29 13:08:14;;;;;;;22.05;3.15;;;9.40;99.90;;;;;;4992747;28;20129;-85
2022/12/29 13:10:47;;;;;;;14.90;2.58;;;9.40;99.90;;;;;;4992740;28;20133;-85
2022/12/29 13:13:49;;;;;;;18.40;3.53;;;9.30;99.90;;;;;;4992659;28;20042;-84
2022/12/29 13:16:26;;;;;;;22.27;2.60;;;9.40;99.90;;;;;;4977172;28;20054;-84
2022/12/29 13:19:04;;;;;;;23.65;3.63;;;9.30;99.90;;;;;;4992966;28;20109;-85
2022/12/29 13:21:42;;;;;;;15.80;2.53;;;9.40;99.90;;;;;;4993075;28;20129;-85
2022/12/29 13:24:27;;;;;;;23.65;2.85;;;9.30;99.90;;;;;;4992797;28;20510;-85
2022/12/29 13:27:04;;;;;;;24.25;2.25;;;9.40;99.90;;;;;;4992455;28;20553;-84
2022/12/29 13:29:41;;;;;;;16.95;2.30;;;9.40;99.90;;;;;;4992689;28;20113;-84
2022/12/29 13:32:28;;;;;;;25.20;3.20;;;9.30;99.90;;;;;;4993149;28;20065;-85
2022/12/29 13:35:04;;;;;;;19.20;3.35;;;9.30;99.90;;;;;;4992550;28;20054;-84
2022/12/29 13:37:32;;;;;;;22.20;2.78;;;9.30;99.90;;;;;;4992750;28;20054;-84
2022/12/29 13:40:03;;;;;;;15.63;2.45;;;9.20;99.90;;;;;;4992661;28;20133;-85
2022/12/29 13:42:29;;;;;;;17.33;2.47;;;9.20;99.90;;;;;;4992470;28;20549;-85